Time;durP1;ratioP1;P1;durP2;ratioP2;P2;SDS_P1;SDS_P2;PMS_P1;PMS_P2;Temp;Humidity;BMP_temperature;BMP_pressure;BME280_temperature;BME280_humidity;BME280_pressure;Samples;Min_cycle;Max_cycle;Signal;HPM_P1;HPM_P2
2021/03/20 00:01:08;;;;;;;13.23;4.20;;;;;;;14.31;81.10;101293.34;4956183;28;20115;-67
2021/03/20 00:03:35;;;;;;;8.07;3.90;;;;;;;14.28;81.05;101273.84;4960239;28;20135;-67
2021/03/20 00:06:04;;;;;;;9.38;4.28;;;;;;;14.21;81.00;101254.31;4973415;28;20187;-66
2021/03/20 00:08:32;;;;;;;11.88;5.22;;;;;;;14.16;80.93;101244.53;4974407;28;20106;-67
2021/03/20 00:11:00;;;;;;;10.57;4.03;;;;;;;14.10;81.06;101242.72;4969461;28;20050;-67
2021/03/20 00:13:27;;;;;;;9.43;3.60;;;;;;;14.12;81.18;101261.28;4962704;28;20470;-67
2021/03/20 00:15:56;;;;;;;9.13;3.47;;;;;;;14.10;81.44;101279.91;4957008;28;20040;-66
2021/03/20 00:18:25;;;;;;;11.60;3.83;;;;;;;14.08;81.51;101281.63;4958310;28;20066;-66
2021/03/20 00:20:53;;;;;;;12.45;4.43;;;;;;;14.09;81.69;101274.56;4954966;28;20377;-67
2021/03/20 00:23:21;;;;;;;9.35;3.60;;;;;;;14.08;81.61;101275.44;4955091;28;20118;-66
2021/03/20 00:25:49;;;;;;;11.27;4.00;;;;;;;14.11;81.57;101281.66;4955449;28;20067;-68
2021/03/20 00:28:21;;;;;;;9.30;4.03;;;;;;;14.10;81.50;101273.69;4956278;28;20554;-67
2021/03/20 00:30:50;;;;;;;10.20;3.65;;;;;;;14.11;81.50;101279.00;4962707;28;20054;-68
2021/03/20 00:33:18;;;;;;;7.05;3.17;;;;;;;14.14;81.67;101297.63;4967118;28;20056;-67
2021/03/20 00:35:45;;;;;;;8.77;3.33;;;;;;;14.10;81.86;101281.66;4969190;28;20038;-67
2021/03/20 00:38:13;;;;;;;6.43;3.03;;;;;;;14.12;81.96;101269.25;4973309;28;20043;-67
2021/03/20 00:40:41;;;;;;;7.30;3.20;;;;;;;14.10;81.92;101256.00;4957609;28;20393;-66
2021/03/20 00:43:10;;;;;;;9.50;3.10;;;;;;;14.11;81.80;101246.28;4954049;28;20449;-66
2021/03/20 00:45:37;;;;;;;6.05;3.05;;;;;;;14.12;81.80;101250.69;4966816;28;20547;-67
2021/03/20 00:48:08;;;;;;;7.72;2.72;;;;;;;14.13;81.76;101253.34;4971215;28;20514;-67
2021/03/20 00:50:35;;;;;;;8.25;3.15;;;;;;;14.14;81.75;101246.28;4969542;28;20440;-67
2021/03/20 00:53:02;;;;;;;7.20;2.80;;;;;;;14.12;81.68;101226.78;4973061;28;20126;-67
2021/03/20 00:55:29;;;;;;;8.00;3.05;;;;;;;14.05;81.75;101212.56;4968619;28;20035;-67
2021/03/20 00:57:57;;;;;;;8.82;3.17;;;;;;;14.03;81.82;101224.06;4972995;28;20118;-67
2021/03/20 01:00:29;;;;;;;10.48;3.78;;;;;;;14.01;82.06;101224.03;4970964;28;20061;-67
2021/03/20 01:02:56;;;;;;;7.57;2.47;;;;;;;13.98;82.05;101222.25;4973227;28;20654;-67
2021/03/20 01:05:23;;;;;;;9.80;3.15;;;;;;;13.95;82.27;101222.22;4964166;28;20035;-67
2021/03/20 01:07:50;;;;;;;9.15;3.10;;;;;;;13.95;82.44;101218.69;4982878;28;20487;-67
2021/03/20 01:10:21;;;;;;;6.72;3.38;;;;;;;13.93;82.37;101212.47;4968360;28;20137;-66
2021/03/20 01:12:48;;;;;;;7.95;3.22;;;;;;;13.90;82.39;101191.22;4960245;28;20094;-67
2021/03/20 01:15:17;;;;;;;9.90;4.13;;;;;;;13.88;82.21;101171.72;4955184;28;20058;-66
2021/03/20 01:17:46;;;;;;;6.68;2.85;;;;;;;13.84;82.29;101164.63;4967204;28;20063;-67
2021/03/20 01:20:15;;;;;;;7.75;3.28;;;;;;;13.82;82.32;101171.69;4966635;28;20101;-67
2021/03/20 01:22:42;;;;;;;6.63;3.03;;;;;;;13.78;82.42;101189.34;4958462;28;20123;-66
2021/03/20 01:25:10;;;;;;;5.95;2.70;;;;;;;13.72;82.57;101197.22;4954038;28;20042;-66
2021/03/20 01:27:39;;;;;;;8.40;2.83;;;;;;;13.71;82.78;101199.88;4972834;28;20430;-67
2021/03/20 01:30:08;;;;;;;6.55;3.10;;;;;;;13.72;82.93;101196.38;4970748;28;20045;-67
2021/03/20 01:32:36;;;;;;;9.00;2.90;;;;;;;13.72;82.92;101194.56;4968196;28;20126;-67
2021/03/20 01:35:05;;;;;;;8.52;2.78;;;;;;;13.73;82.95;101161.84;4966518;28;20499;-67
2021/03/20 01:37:32;;;;;;;9.40;3.72;;;;;;;13.70;82.69;101153.00;4971502;28;20062;-66
2021/03/20 01:39:59;;;;;;;10.88;2.97;;;;;;;13.68;82.67;101152.97;4954341;28;20556;-67
2021/03/20 01:42:26;;;;;;;5.43;3.00;;;;;;;13.64;82.76;101167.09;4964071;28;20392;-67
2021/03/20 01:45:22;;;;;;;8.77;2.83;;;;;;;13.62;83.07;101166.19;4971821;28;20047;-66
2021/03/20 01:47:53;;;;;;;7.43;3.05;;;;;;;13.57;83.22;101168.81;4929853;28;20404;-68
2021/03/20 01:50:31;;;;;;;6.13;2.47;;;;;;;13.54;83.30;101178.47;4954402;28;20050;-66
2021/03/20 01:53:02;;;;;;;10.57;5.22;;;;;;;13.45;83.47;101176.66;4953010;28;20505;-66
2021/03/20 01:55:29;;;;;;;19.83;11.05;;;;;;;13.44;83.62;101163.34;4983975;28;20571;-66
2021/03/20 01:57:59;;;;;;;6.10;2.90;;;;;;;13.52;83.78;101157.22;4953628;28;20070;-67
2021/03/20 02:00:32;;;;;;;10.35;2.90;;;;;;;13.60;83.52;101153.78;4955556;28;20040;-67
2021/03/20 02:03:02;;;;;;;6.72;3.13;;;;;;;13.57;83.05;101150.25;4971959;28;20035;-67
2021/03/20 02:05:32;;;;;;;9.95;3.58;;;;;;;13.49;82.70;101141.31;4957088;28;20035;-67
2021/03/20 02:08:01;;;;;;;6.30;3.10;;;;;;;13.46;82.59;101125.34;4963425;28;20046;-67
2021/03/20 02:10:31;;;;;;;11.02;3.35;;;;;;;13.41;82.31;101107.63;4966248;28;20035;-67
2021/03/20 02:13:10;;;;;;;7.35;3.30;;;;;;;13.34;82.13;101109.31;4970994;28;20100;-66
2021/03/20 02:15:44;;;;;;;6.78;2.50;;;;;;;13.38;82.04;101100.53;4960274;28;20118;-67
2021/03/20 02:18:18;;;;;;;5.63;2.13;;;;;;;13.44;82.21;101100.59;4955031;28;20077;-67
2021/03/20 02:21:12;;;;;;;6.00;2.75;;;;;;;13.45;82.20;101098.84;4971953;28;20044;-67
2021/03/20 02:24:23;;;;;;;10.68;4.35;;;;;;;13.36;82.30;101102.28;4971614;28;20035;-67
2021/03/20 02:27:29;;;;;;;5.07;2.17;;;;;;;13.29;82.70;101118.09;4981602;28;20042;-67
2021/03/20 02:30:40;;;;;;;8.93;4.68;;;;;;;13.25;82.93;101116.31;4953479;28;20051;-67
2021/03/20 02:33:27;;;;;;;8.05;2.75;;;;;;;13.29;83.13;101105.75;4965255;28;20059;-67
2021/03/20 02:36:05;;;;;;;8.40;3.10;;;;;;;13.18;83.31;101101.22;4955136;28;20043;-67
2021/03/20 02:38:38;;;;;;;7.03;2.97;;;;;;;13.18;83.55;101110.06;4971401;28;20130;-66
2021/03/20 02:41:16;;;;;;;6.22;2.72;;;;;;;13.18;83.59;101106.50;4969183;28;20055;-67
2021/03/20 02:43:53;;;;;;;4.30;2.75;;;;;;;13.24;83.44;101103.94;4960929;28;20396;-66
2021/03/20 02:46:26;;;;;;;6.07;3.10;;;;;;;13.35;83.38;101099.59;4953379;28;20043;-66
2021/03/20 02:49:02;;;;;;;9.27;2.78;;;;;;;13.34;83.10;101084.56;4955979;28;20137;-67
2021/03/20 02:51:35;;;;;;;7.93;2.70;;;;;;;13.33;82.97;101081.03;4970149;28;20039;-66
2021/03/20 02:54:07;;;;;;;11.38;2.92;;;;;;;13.36;82.83;101072.22;4964389;28;20039;-66
2021/03/20 02:56:40;;;;;;;4.82;2.10;;;;;;;13.36;82.84;101075.78;4958928;28;20106;-66
2021/03/20 02:59:12;;;;;;;11.52;2.55;;;;;;;13.38;82.90;101073.13;4951709;28;20043;-66
2021/03/20 03:01:42;;;;;;;9.32;2.80;;;;;;;13.33;82.83;101069.53;4952601;28;20039;-66
2021/03/20 03:04:13;;;;;;;7.88;3.55;;;;;;;13.33;82.84;101064.22;4954767;28;24780;-66
2021/03/20 03:06:48;;;;;;;5.82;2.72;;;;;;;13.28;82.79;101050.03;4968774;28;20053;-66
2021/03/20 03:09:21;;;;;;;6.80;2.55;;;;;;;13.26;83.03;101047.38;4970829;28;20049;-66
2021/03/20 03:11:53;;;;;;;8.35;2.60;;;;;;;13.26;83.14;101050.03;4971084;28;20126;-66
2021/03/20 03:14:26;;;;;;;6.38;2.45;;;;;;;13.29;83.12;101060.66;4966504;28;20045;-66
2021/03/20 03:16:58;;;;;;;7.63;2.80;;;;;;;13.35;83.13;101066.03;4968278;28;20129;-66
2021/03/20 03:19:30;;;;;;;5.38;2.33;;;;;;;13.36;83.13;101081.06;4962782;28;20085;-66
2021/03/20 03:22:00;;;;;;;7.47;2.45;;;;;;;13.35;83.06;101079.28;4969504;28;20190;-66
2021/03/20 03:24:29;;;;;;;8.35;2.55;;;;;;;13.35;83.02;101073.09;4972925;28;20159;-65
2021/03/20 03:27:00;;;;;;;6.25;3.25;;;;;;;13.40;82.75;101081.97;4974496;28;20053;-66
2021/03/20 03:29:29;;;;;;;5.78;2.40;;;;;;;13.43;82.72;101071.41;4967590;28;20063;-66
2021/03/20 03:32:05;;;;;;;6.40;2.72;;;;;;;13.44;82.69;101074.09;4955732;28;20078;-67
2021/03/20 03:34:43;;;;;;;6.25;2.50;;;;;;;13.42;82.35;101072.28;4955891;28;20055;-66
2021/03/20 03:37:14;;;;;;;7.60;3.03;;;;;;;13.40;82.55;101079.31;4955319;28;20532;-66
2021/03/20 03:39:47;;;;;;;6.45;2.60;;;;;;;13.39;82.72;101090.84;4955725;28;20038;-66
2021/03/20 03:42:17;;;;;;;5.20;2.05;;;;;;;13.38;82.81;101092.59;4955608;28;20295;-66
2021/03/20 03:44:46;;;;;;;5.65;2.47;;;;;;;13.37;82.87;101097.88;4958952;28;20350;-65
2021/03/20 03:47:15;;;;;;;8.93;3.60;;;;;;;13.35;82.92;101096.97;4955512;28;20035;-66
2021/03/20 03:49:43;;;;;;;4.82;2.35;;;;;;;13.35;82.98;101105.81;4959298;28;20039;-66
2021/03/20 03:52:12;;;;;;;6.35;2.25;;;;;;;13.36;83.03;101109.34;4974221;28;20126;-66
2021/03/20 03:54:40;;;;;;;5.25;2.40;;;;;;;13.30;83.08;101118.13;4974716;28;20504;-66
2021/03/20 03:57:52;;;;;;;5.45;2.17;;;;;;;13.37;83.21;101098.75;4974406;28;20493;-66
2021/03/20 04:00:27;;;;;;;7.50;2.35;;;;;;;13.36;83.23;101093.44;4947363;28;20069;-66
2021/03/20 04:03:32;;;;;;;6.78;2.47;;;;;;;13.38;83.26;101079.34;4955067;28;20063;-66
2021/03/20 04:06:15;;;;;;;4.05;2.00;;;;;;;13.37;83.22;101071.34;4948302;28;20040;-66
2021/03/20 04:09:02;;;;;;;7.45;2.72;;;;;;;13.39;83.31;101078.44;4966485;28;20034;-66
2021/03/20 04:11:35;;;;;;;7.80;2.30;;;;;;;13.41;83.23;101074.03;4971382;28;20049;-66
2021/03/20 04:14:07;;;;;;;12.35;2.80;;;;;;;13.39;83.25;101066.97;4967140;28;20059;-66
2021/03/20 04:16:49;;;;;;;8.07;2.58;;;;;;;13.36;83.10;101080.19;4957613;28;20062;-66
2021/03/20 04:19:26;;;;;;;10.57;3.05;;;;;;;13.35;82.78;101063.38;4973550;28;20637;-66
2021/03/20 04:22:00;;;;;;;9.32;2.30;;;;;;;13.34;82.23;101056.28;4973944;28;20576;-65
2021/03/20 04:24:34;;;;;;;5.65;2.53;;;;;;;13.40;81.72;101044.84;4974109;28;20049;-66
2021/03/20 04:27:04;;;;;;;;;;;;;;;13.45;81.64;101045.81;4974215;28;20125;-66
2021/03/20 04:29:36;;;;;;;15.38;7.82;;;;;;;13.42;81.94;101043.09;4961835;28;20451;-65
2021/03/20 04:32:07;;;;;;;9.18;4.40;;;;;;;13.42;82.28;101044.00;4970923;28;20150;-64
2021/03/20 04:34:41;;;;;;;14.52;6.65;;;;;;;13.40;82.50;101039.53;4955056;28;20114;-65
2021/03/20 04:37:12;;;;;;;8.25;5.45;;;;;;;13.45;82.79;101048.44;4953126;28;20134;-65
2021/03/20 04:39:43;;;;;;;6.43;2.42;;;;;;;13.53;82.70;101060.88;4971939;28;20503;-65
2021/03/20 04:42:12;;;;;;;4.38;2.10;;;;;;;13.50;82.43;101055.56;4972700;28;20530;-65
2021/03/20 04:44:41;;;;;;;4.82;1.75;;;;;;;13.48;82.20;101062.59;4971293;28;20495;-66
2021/03/20 04:47:12;;;;;;;9.15;2.75;;;;;;;13.46;82.15;101058.16;4971848;28;20511;-65
2021/03/20 04:49:44;;;;;;;8.07;2.95;;;;;;;13.40;82.00;101045.72;4972886;28;20585;-65
2021/03/20 04:52:17;;;;;;;7.22;2.20;;;;;;;13.45;81.99;101041.38;4971104;28;20049;-64
2021/03/20 04:54:44;;;;;;;3.72;1.90;;;;;;;13.46;81.97;101051.09;4954798;28;20086;-64
2021/03/20 04:57:25;;;;;;;4.88;2.22;;;;;;;13.43;82.21;101053.72;4962222;28;20504;-64
2021/03/20 04:59:59;;;;;;;5.35;2.13;;;;;;;13.41;82.33;101052.81;4972290;28;20041;-64
2021/03/20 05:02:32;;;;;;;4.93;1.57;;;;;;;13.42;82.38;101057.25;4965981;28;20054;-64
2021/03/20 05:05:13;;;;;;;4.22;2.22;;;;;;;13.46;82.42;101048.44;4957374;28;20039;-64
2021/03/20 05:07:42;;;;;;;9.52;2.88;;;;;;;13.45;82.49;101044.03;4964659;28;20039;-64
2021/03/20 05:10:18;;;;;;;4.55;1.80;;;;;;;13.49;82.45;101044.94;4953991;28;20040;-64
2021/03/20 05:12:49;;;;;;;4.03;1.20;;;;;;;13.54;82.30;101049.41;4954258;28;20059;-64
2021/03/20 05:15:25;;;;;;;7.05;2.22;;;;;;;13.59;82.05;101045.91;4952628;28;20046;-64
2021/03/20 05:17:53;;;;;;;5.85;2.03;;;;;;;13.60;81.86;101047.66;4965959;28;20038;-63
2021/03/20 05:20:20;;;;;;;6.40;1.58;;;;;;;13.62;81.86;101064.50;4957960;28;20148;-64
2021/03/20 05:22:50;;;;;;;4.35;1.90;;;;;;;13.67;81.66;101055.69;4955349;28;20045;-64
2021/03/20 05:25:21;;;;;;;5.45;2.20;;;;;;;13.69;81.69;101037.13;4953677;28;20046;-64
2021/03/20 05:27:48;;;;;;;5.50;1.80;;;;;;;13.72;81.48;101037.16;4965715;28;20114;-64
2021/03/20 05:30:17;;;;;;;7.32;1.80;;;;;;;13.78;81.55;101043.41;4972835;28;20035;-63
2021/03/20 05:32:44;;;;;;;7.65;1.63;;;;;;;13.83;81.66;101028.41;4972732;28;20437;-64
2021/03/20 05:35:21;;;;;;;8.07;1.98;;;;;;;13.92;81.27;101025.78;4972236;28;20050;-64
2021/03/20 05:37:49;;;;;;;3.58;1.73;;;;;;;13.96;81.38;101024.94;4972079;28;20051;-64
2021/03/20 05:40:22;;;;;;;5.05;1.70;;;;;;;14.06;81.28;101017.00;4962836;28;20129;-64
2021/03/20 05:43:06;;;;;;;6.25;1.92;;;;;;;14.18;81.23;101017.97;4958674;28;20043;-64
2021/03/20 05:45:39;;;;;;;6.22;2.00;;;;;;;14.25;81.14;101024.19;4972607;28;20031;-64
2021/03/20 05:48:16;;;;;;;5.40;1.42;;;;;;;14.34;80.32;101041.06;4970949;28;20043;-64
2021/03/20 05:50:59;;;;;;;8.63;2.85;;;;;;;14.44;79.89;101047.31;4972389;28;20035;-64
2021/03/20 05:53:39;;;;;;;5.43;1.45;;;;;;;14.54;79.97;101050.91;4956442;28;20067;-64
2021/03/20 05:56:15;;;;;;;10.80;2.08;;;;;;;14.64;80.24;101040.31;4952643;28;20118;-64
2021/03/20 05:59:15;;;;;;;6.95;1.50;;;;;;;14.69;79.21;101033.28;4955310;28;20043;-64
2021/03/20 06:01:56;;;;;;;14.10;2.75;;;;;;;14.73;78.38;101044.78;4963008;28;20035;-64
2021/03/20 06:04:35;;;;;;;8.55;2.83;;;;;;;14.86;78.89;101046.59;4964786;28;20060;-64
2021/03/20 06:07:32;;;;;;;11.23;3.05;;;;;;;14.94;78.67;101036.88;4955976;28;20039;-64
2021/03/20 06:10:16;;;;;;;7.35;1.65;;;;;;;14.99;78.03;101047.50;4971764;28;20039;-64
2021/03/20 06:12:53;;;;;;;3.85;1.65;;;;;;;15.00;77.32;101042.22;4964273;28;20130;-64
2021/03/20 06:15:34;;;;;;;11.38;3.35;;;;;;;15.01;77.05;101046.66;4953516;28;20039;-64
2021/03/20 06:18:27;;;;;;;8.95;2.38;;;;;;;15.03;77.26;101036.88;4964458;28;20054;-64
2021/03/20 06:20:58;;;;;;;13.93;5.28;;;;;;;15.05;76.73;101045.75;4971157;28;20146;-63
2021/03/20 06:23:48;;;;;;;8.65;3.58;;;;;;;15.11;76.30;101048.44;4968395;28;20515;-64
2021/03/20 06:26:19;;;;;;;11.10;2.53;;;;;;;15.19;76.35;101048.44;4949701;28;20039;-63
2021/03/20 06:28:52;;;;;;;6.78;2.72;;;;;;;15.28;76.34;101052.91;4962606;28;20507;-64
2021/03/20 06:31:26;;;;;;;8.38;3.08;;;;;;;15.21;76.69;101053.78;4952234;28;20050;-64
2021/03/20 06:33:57;;;;;;;8.50;5.85;;;;;;;15.24;77.17;101046.66;4961295;28;20042;-64
2021/03/20 06:36:34;;;;;;;7.72;5.32;;;;;;;15.29;77.08;101041.38;4970517;28;20526;-64
2021/03/20 06:39:17;;;;;;;8.90;3.78;;;;;;;15.24;76.52;101032.47;4965636;28;20031;-64
2021/03/20 06:41:49;;;;;;;7.50;3.67;;;;;;;15.27;77.49;101029.84;4952572;28;20504;-64
2021/03/20 06:44:29;;;;;;;9.80;3.85;;;;;;;15.35;77.96;101028.06;4954184;28;20109;-64
2021/03/20 06:46:56;;;;;;;14.90;7.72;;;;;;;15.82;78.68;101031.59;4962581;28;20070;-64
2021/03/20 06:49:27;;;;;;;9.45;3.58;;;;;;;16.31;79.12;101034.16;4971194;28;20088;-64
2021/03/20 06:51:56;;;;;;;8.43;3.05;;;;;;;16.67;78.92;101044.69;4970762;28;20038;-64
2021/03/20 06:54:25;;;;;;;6.03;1.05;;;;;;;16.93;78.41;101035.69;4970578;28;20463;-64
2021/03/20 06:56:53;;;;;;;7.05;1.20;;;;;;;17.20;77.83;101029.28;4969888;28;20093;-64
2021/03/20 06:59:22;;;;;;;7.68;1.40;;;;;;;17.45;76.51;101036.19;4969873;28;20571;-64
2021/03/20 07:01:53;;;;;;;6.55;1.35;;;;;;;17.59;75.33;101038.75;4971194;28;20031;-63
2021/03/20 07:04:44;;;;;;;10.05;1.60;;;;;;;17.71;74.34;101036.91;4971069;28;20047;-63
2021/03/20 07:07:40;;;;;;;8.15;1.65;;;;;;;17.77;72.73;101042.19;4964178;28;20164;-64
2021/03/20 07:10:17;;;;;;;7.43;1.25;;;;;;;17.55;72.84;101032.53;4969046;28;20526;-64
2021/03/20 07:13:19;;;;;;;6.57;1.27;;;;;;;17.29;72.83;101027.41;4966364;28;20085;-63
2021/03/20 07:16:03;;;;;;;7.53;1.95;;;;;;;17.15;72.33;101042.63;4965345;28;20035;-64
2021/03/20 07:18:35;;;;;;;8.45;1.73;;;;;;;17.06;72.20;101054.28;4970419;28;20511;-64
2021/03/20 07:21:18;;;;;;;6.15;1.80;;;;;;;17.17;72.40;101045.31;4970989;28;20114;-63
2021/03/20 07:23:58;;;;;;;5.97;1.92;;;;;;;17.17;72.27;101053.31;4971419;28;20744;-64
2021/03/20 07:26:25;;;;;;;9.43;2.88;;;;;;;17.25;72.11;101040.81;4967690;28;20039;-64
2021/03/20 07:28:55;;;;;;;9.07;2.35;;;;;;;17.39;71.67;101037.09;4968590;28;20126;-64
2021/03/20 07:31:24;;;;;;;11.82;1.65;;;;;;;17.51;70.97;101038.81;4970775;28;20480;-64
2021/03/20 07:33:53;;;;;;;13.15;2.58;;;;;;;17.48;69.76;101037.03;4967795;28;20127;-63
2021/03/20 07:36:33;;;;;;;7.55;1.73;;;;;;;17.46;69.69;101046.84;4971162;28;20066;-64
2021/03/20 07:39:19;;;;;;;8.75;1.88;;;;;;;17.46;70.27;101022.81;4967404;28;20412;-63
2021/03/20 07:41:53;;;;;;;4.20;1.67;;;;;;;17.29;69.80;101032.75;4965646;28;20147;-63
2021/03/20 07:44:20;;;;;;;;;;;;;;;17.37;69.78;101028.25;4984347;28;20046;-64
2021/03/20 07:46:48;;;;;;;5.65;2.25;;;;;;;17.71;70.89;101020.00;4973045;28;20005;-63
2021/03/20 07:49:23;;;;;;;6.35;1.88;;;;;;;17.87;69.54;101032.28;4965666;28;20133;-63
2021/03/20 07:51:53;;;;;;;8.48;1.77;;;;;;;18.06;69.32;101023.16;4971044;28;20118;-63
2021/03/20 07:54:22;;;;;;;8.73;2.25;;;;;;;18.26;69.24;101017.59;4963034;28;20050;-63
2021/03/20 07:56:49;;;;;;;7.47;1.73;;;;;;;18.42;68.44;101004.94;4962288;28;20042;-63
2021/03/20 07:59:23;;;;;;;8.88;1.98;;;;;;;18.30;66.66;101004.19;4964601;28;20039;-63
2021/03/20 08:01:57;;;;;;;9.55;1.95;;;;;;;18.28;67.05;101005.09;4941017;28;20054;-63
2021/03/20 08:04:54;;;;;;;6.20;1.13;;;;;;;18.49;66.95;101014.66;4968190;28;20038;-63
2021/03/20 08:07:36;;;;;;;12.00;2.50;;;;;;;18.74;65.26;101013.44;4957211;28;20122;-64
2021/03/20 08:10:23;;;;;;;7.32;1.70;;;;;;;18.66;65.07;101010.00;4960121;28;20051;-63
2021/03/20 08:13:00;;;;;;;7.03;1.50;;;;;;;18.50;65.34;101005.72;4972740;28;20074;-63
2021/03/20 08:15:31;;;;;;;6.03;1.50;;;;;;;18.39;65.69;101024.56;4971456;28;20050;-63
2021/03/20 08:18:05;;;;;;;8.55;2.15;;;;;;;18.38;66.42;101020.13;4973690;28;20039;-64
2021/03/20 08:20:32;;;;;;;11.10;2.33;;;;;;;18.49;63.37;101010.19;4972645;28;20054;-64
2021/03/20 08:23:30;;;;;;;9.13;2.35;;;;;;;19.02;63.80;101011.28;4969898;28;20117;-64
2021/03/20 08:26:02;;;;;;;10.93;2.45;;;;;;;19.11;63.73;101011.09;4970442;28;20039;-65
2021/03/20 08:28:49;;;;;;;6.43;2.40;;;;;;;19.32;63.78;101028.63;4972061;28;20049;-64
2021/03/20 08:31:38;;;;;;;8.27;2.30;;;;;;;19.67;61.89;101014.69;4973512;28;20122;-64
2021/03/20 08:34:21;;;;;;;7.30;1.83;;;;;;;20.01;61.62;101023.00;4973426;28;20141;-64
2021/03/20 08:37:06;;;;;;;8.95;1.33;;;;;;;20.28;60.93;101007.25;4970954;28;20055;-64
2021/03/20 08:39:52;;;;;;;8.15;1.70;;;;;;;20.20;59.01;100994.91;4971788;28;20046;-64
2021/03/20 08:42:31;;;;;;;7.07;1.30;;;;;;;20.14;58.63;100998.63;4963240;28;20119;-64
2021/03/20 08:45:16;;;;;;;5.45;1.55;;;;;;;20.12;57.28;101015.63;4966931;28;20431;-64
2021/03/20 08:48:01;;;;;;;9.52;2.70;;;;;;;20.18;55.85;101002.09;4972834;28;20031;-64
2021/03/20 08:50:40;;;;;;;6.45;1.58;;;;;;;20.22;55.92;100998.44;4954372;28;20574;-64
2021/03/20 08:53:14;;;;;;;6.70;1.83;;;;;;;20.40;56.90;100978.47;4964737;28;20612;-64
2021/03/20 08:56:13;;;;;;;7.53;2.00;;;;;;;20.49;55.52;100999.69;4964776;28;20035;-64
2021/03/20 08:58:53;;;;;;;8.52;2.67;;;;;;;20.56;55.35;100985.25;4969203;28;20043;-64
2021/03/20 09:01:29;;;;;;;8.40;1.77;;;;;;;20.75;56.08;100975.88;4972049;28;20514;-64
2021/03/20 09:04:00;;;;;;;7.72;1.50;;;;;;;20.75;56.14;101004.50;4953797;28;20039;-64
2021/03/20 09:06:34;;;;;;;5.93;1.48;;;;;;;20.78;56.00;100975.81;4954038;28;20090;-64
2021/03/20 09:09:07;;;;;;;6.75;2.45;;;;;;;20.90;56.00;100990.75;4960065;28;20215;-63
2021/03/20 09:11:45;;;;;;;6.80;1.50;;;;;;;20.92;55.67;100992.47;4973546;28;20482;-63
2021/03/20 09:14:20;;;;;;;10.48;1.92;;;;;;;21.13;56.34;100999.16;4972643;28;20078;-64
2021/03/20 09:16:51;;;;;;;9.05;2.42;;;;;;;21.21;55.94;100999.84;4987545;28;20058;-64
2021/03/20 09:19:28;;;;;;;6.57;1.65;;;;;;;21.21;54.80;101007.91;4972188;28;20039;-64
2021/03/20 09:22:00;;;;;;;7.38;2.65;;;;;;;21.23;54.72;101002.50;4972094;28;20067;-64
2021/03/20 09:24:30;;;;;;;16.63;7.00;;;;;;;21.20;54.32;100995.41;4973322;28;20054;-64
2021/03/20 09:26:59;;;;;;;10.18;1.90;;;;;;;21.11;54.15;101006.34;4972378;28;20538;-64
2021/03/20 09:29:29;;;;;;;7.55;2.30;;;;;;;21.13;54.30;101001.84;4972995;28;20122;-65
2021/03/20 09:32:05;;;;;;;11.73;2.85;;;;;;;21.17;54.07;101000.88;4972527;28;20075;-64
2021/03/20 09:34:43;;;;;;;6.97;2.55;;;;;;;21.42;55.16;101004.72;4973668;28;20039;-64
2021/03/20 09:37:57;;;;;;;4.80;1.48;;;;;;;21.41;53.12;100997.56;4972319;28;20097;-64
2021/03/20 09:40:57;;;;;;;9.55;1.88;;;;;;;21.23;53.57;100967.59;4962191;28;20090;-64
2021/03/20 09:43:45;;;;;;;11.35;2.53;;;;;;;21.17;53.95;100970.44;4972501;28;20039;-65
2021/03/20 09:46:54;;;;;;;9.52;2.90;;;;;;;21.11;52.18;100979.50;4972230;28;20046;-64
2021/03/20 09:49:57;;;;;;;15.55;3.67;;;;;;;21.01;50.47;100951.09;4972223;28;20042;-65
2021/03/20 09:52:50;;;;;;;7.15;1.40;;;;;;;20.90;52.62;100982.69;4972230;28;20523;-65
2021/03/20 09:55:42;;;;;;;8.40;2.22;;;;;;;21.07;53.11;100969.72;4971820;28;20037;-64
2021/03/20 09:58:41;;;;;;;7.63;2.45;;;;;;;21.24;54.01;100964.00;4971741;28;20130;-65
2021/03/20 10:01:19;;;;;;;8.38;2.00;;;;;;;21.60;54.25;100962.16;4972018;28;20039;-64
2021/03/20 10:04:20;;;;;;;5.20;1.65;;;;;;;21.66;53.58;100970.09;4972305;28;20065;-65
2021/03/20 10:07:17;;;;;;;9.75;1.90;;;;;;;21.85;53.27;100972.22;4970911;28;20035;-64
2021/03/20 10:09:53;;;;;;;6.13;1.88;;;;;;;21.95;53.50;100958.50;4971709;28;20092;-65
2021/03/20 10:12:24;;;;;;;15.50;2.70;;;;;;;21.96;52.97;100960.31;4971784;28;20636;-64
2021/03/20 10:15:15;;;;;;;10.30;1.85;;;;;;;21.99;52.27;100950.34;4972231;28;20039;-64
2021/03/20 10:18:23;;;;;;;6.68;1.90;;;;;;;21.94;51.25;100940.63;4972032;28;20039;-64
2021/03/20 10:21:04;;;;;;;8.50;1.83;;;;;;;21.90;51.74;100972.09;4968351;28;20039;-64
2021/03/20 10:23:41;;;;;;;4.30;1.90;;;;;;;21.97;51.82;100986.28;4959921;28;20038;-65
2021/03/20 10:26:18;;;;;;;6.70;1.92;;;;;;;21.83;51.05;100982.13;4970980;28;20035;-64
2021/03/20 10:28:50;;;;;;;9.40;2.58;;;;;;;21.92;51.94;100966.69;4971972;28;20093;-64
2021/03/20 10:31:19;;;;;;;8.60;2.47;;;;;;;22.02;51.31;100955.66;4967164;28;20039;-65
2021/03/20 10:33:47;;;;;;;6.28;2.03;;;;;;;22.09;51.02;100959.03;4970611;28;20147;-63
2021/03/20 10:36:29;;;;;;;7.38;2.30;;;;;;;22.07;50.31;100964.47;4962272;28;20432;-64
2021/03/20 10:38:56;;;;;;;6.47;1.65;;;;;;;22.11;51.23;100943.75;4958683;28;20066;-64
2021/03/20 10:41:29;;;;;;;8.52;1.60;;;;;;;22.24;50.47;100934.41;4968536;28;20704;-63
2021/03/20 10:44:01;;;;;;;5.57;1.45;;;;;;;22.09;49.88;100946.47;4972333;28;20197;-64
2021/03/20 10:46:32;;;;;;;7.20;1.83;;;;;;;22.18;49.29;100942.66;4971130;28;20530;-64
2021/03/20 10:49:03;;;;;;;8.70;1.65;;;;;;;22.13;49.12;100923.06;4970836;28;20126;-64
2021/03/20 10:51:38;;;;;;;6.97;1.80;;;;;;;21.90;48.47;100934.47;4970414;28;20038;-64
2021/03/20 10:54:12;;;;;;;11.05;1.98;;;;;;;21.72;48.42;100914.38;4968683;28;20609;-65
2021/03/20 10:56:41;;;;;;;14.95;4.82;;;;;;;21.67;48.75;100905.53;4984875;28;20366;-65
2021/03/20 10:59:22;;;;;;;9.90;3.88;;;;;;;21.67;48.67;100901.94;4968406;28;20049;-65
2021/03/20 11:01:51;;;;;;;8.55;1.70;;;;;;;21.66;50.13;100894.84;4963414;28;20130;-65
2021/03/20 11:04:28;;;;;;;15.07;1.77;;;;;;;21.82;49.77;100888.09;4968819;28;20070;-65
2021/03/20 11:06:57;;;;;;;5.10;1.45;;;;;;;21.76;48.58;100904.41;4970191;28;20043;-66
2021/03/20 11:09:26;;;;;;;5.53;1.80;;;;;;;21.75;48.29;100905.31;4968990;28;20043;-65
2021/03/20 11:12:01;;;;;;;6.45;1.02;;;;;;;21.86;48.53;100911.25;4975832;28;20047;-66
2021/03/20 11:14:29;;;;;;;7.63;1.30;;;;;;;21.97;48.51;100889.50;4970783;28;20047;-65
2021/03/20 11:17:05;;;;;;;5.80;1.45;;;;;;;22.11;47.86;100898.94;4970050;28;20550;-65
2021/03/20 11:19:34;;;;;;;5.68;2.40;;;;;;;22.18;48.46;100889.75;4971937;28;20051;-65
2021/03/20 11:22:15;;;;;;;8.20;1.70;;;;;;;22.31;46.67;100871.44;4974469;28;20043;-65
2021/03/20 11:24:44;;;;;;;11.38;3.25;;;;;;;22.09;45.21;100887.31;4964044;28;20042;-65
2021/03/20 11:27:19;;;;;;;7.63;1.38;;;;;;;22.03;46.22;100890.19;4970491;28;20122;-65
2021/03/20 11:29:50;;;;;;;7.10;1.60;;;;;;;22.15;46.18;100883.56;4990193;28;20061;-66
2021/03/20 11:32:26;;;;;;;6.53;2.50;;;;;;;22.37;46.21;100870.34;4988440;28;20495;-66
2021/03/20 11:35:02;;;;;;;8.43;1.95;;;;;;;22.50;45.63;100858.28;4969714;28;20101;-67
2021/03/20 11:37:30;;;;;;;6.65;2.13;;;;;;;22.57;44.78;100839.19;4980655;28;20516;-65
2021/03/20 11:39:58;;;;;;;6.68;1.25;;;;;;;22.62;44.55;100852.50;4967784;28;20133;-66
2021/03/20 11:42:29;;;;;;;7.05;1.23;;;;;;;22.64;43.23;100856.03;4970748;28;20182;-64
2021/03/20 11:44:58;;;;;;;8.25;1.48;;;;;;;22.69;43.62;100858.56;4969937;28;20076;-64
2021/03/20 11:47:30;;;;;;;5.07;1.13;;;;;;;22.87;43.06;100841.81;4986594;28;20047;-64
2021/03/20 11:49:58;;;;;;;4.03;0.95;;;;;;;22.87;42.08;100845.41;4976294;28;20053;-64
2021/03/20 11:52:28;;;;;;;7.50;1.27;;;;;;;22.91;41.44;100847.03;4978576;28;20037;-64
2021/03/20 11:55:03;;;;;;;4.43;1.23;;;;;;;23.04;41.08;100836.72;4972045;28;20125;-64
2021/03/20 11:57:36;;;;;;;5.03;1.00;;;;;;;23.03;39.88;100832.31;4972155;28;20097;-64
2021/03/20 12:00:29;;;;;;;4.13;1.13;;;;;;;23.05;39.97;100831.28;4976219;28;20041;-65
2021/03/20 12:02:58;;;;;;;6.57;1.05;;;;;;;23.15;41.02;100814.81;4973629;28;20039;-64